createdAt,value
2022-11-26T00:02:27.599Z,7.65
2022-11-26T00:04:56.149Z,8.07
2022-11-26T00:07:26.852Z,12.25
2022-11-26T00:09:55.256Z,8.85
2022-11-26T00:12:26.709Z,9.15
2022-11-26T00:14:54.042Z,8.40
2022-11-26T00:17:21.540Z,10.45
2022-11-26T00:19:48.527Z,9.93
2022-11-26T00:22:53.281Z,24.02
2022-11-26T00:25:23.149Z,8.88
2022-11-26T00:27:52.514Z,10.02
2022-11-26T00:30:28.045Z,8.88
2022-11-26T00:32:56.307Z,8.07
2022-11-26T00:35:23.790Z,8.55
2022-11-26T00:37:58.675Z,7.30
2022-11-26T00:40:28.026Z,9.05
2022-11-26T00:43:00.052Z,9.90
2022-11-26T00:45:30.209Z,8.57
2022-11-26T00:48:01.802Z,7.63
2022-11-26T00:50:40.122Z,9.07
2022-11-26T00:53:08.367Z,7.68
2022-11-26T00:55:38.844Z,9.88
2022-11-26T00:58:07.193Z,9.20
2022-11-26T01:00:35.595Z,13.27
2022-11-26T01:03:02.780Z,9.40
2022-11-26T01:05:32.086Z,9.13
2022-11-26T01:08:02.602Z,11.95
2022-11-26T01:10:30.194Z,11.38
2022-11-26T01:12:57.522Z,12.73
2022-11-26T01:15:26.218Z,9.23
2022-11-26T01:17:53.683Z,10.23
2022-11-26T01:20:26.750Z,10.27
2022-11-26T01:22:55.590Z,11.20
2022-11-26T01:25:24.907Z,11.13
2022-11-26T01:27:52.501Z,9.18
2022-11-26T01:30:30.778Z,8.73
2022-11-26T01:32:58.041Z,8.93
2022-11-26T01:35:24.931Z,9.35
2022-11-26T01:37:51.774Z,10.52
2022-11-26T01:40:18.616Z,8.75
2022-11-26T01:42:49.756Z,10.85
2022-11-26T01:45:22.624Z,9.85
2022-11-26T01:47:50.065Z,9.65
2022-11-26T01:50:31.701Z,10.73
2022-11-26T01:53:00.990Z,9.32
2022-11-26T01:55:36.110Z,12.35
2022-11-26T01:58:06.973Z,10.88
2022-11-26T02:00:34.100Z,9.48
2022-11-26T02:03:01.891Z,10.85
2022-11-26T02:05:33.850Z,9.38
2022-11-26T02:08:02.279Z,9.65
2022-11-26T02:10:29.130Z,9.15
2022-11-26T02:12:55.991Z,10.07
2022-11-26T02:15:27.874Z,10.15
2022-11-26T02:18:09.524Z,8.38
2022-11-26T02:21:06.088Z,9.27
2022-11-26T02:24:12.759Z,9.82
2022-11-26T02:26:54.819Z,9.48
2022-11-26T02:29:46.539Z,10.20
2022-11-26T02:32:22.871Z,11.85
2022-11-26T02:34:58.453Z,9.88
2022-11-26T02:37:33.950Z,9.27
2022-11-26T02:40:00.781Z,10.90
2022-11-26T02:42:32.977Z,10.23
2022-11-26T02:45:08.044Z,10.25
2022-11-26T02:47:38.037Z,11.15
2022-11-26T02:50:10.341Z,10.40
2022-11-26T02:52:39.984Z,10.25
2022-11-26T02:55:08.680Z,10.50
2022-11-26T02:57:43.721Z,11.13
2022-11-26T03:00:11.041Z,10.65
2022-11-26T03:03:09.143Z,12.65
2022-11-26T03:05:39.275Z,10.18
2022-11-26T03:25:46.121Z,12.70
2022-11-26T03:28:12.997Z,11.18
2022-11-26T03:30:39.808Z,11.18
2022-11-26T03:33:06.678Z,11.77
2022-11-26T03:35:33.496Z,12.55
2022-11-26T03:38:00.312Z,11.55
2022-11-26T03:40:27.245Z,11.43
2022-11-26T03:42:54.119Z,10.57
2022-11-26T03:45:21.066Z,12.18
2022-11-26T03:47:47.913Z,11.73
2022-11-26T03:50:14.796Z,11.65
2022-11-26T03:52:41.662Z,9.57
2022-11-26T03:55:09.446Z,10.45
2022-11-26T03:57:36.931Z,11.48
2022-11-26T04:00:06.712Z,12.98
2022-11-26T04:02:36.522Z,10.45
2022-11-26T04:05:04.443Z,10.93
2022-11-26T04:07:31.337Z,9.60
2022-11-26T04:09:58.433Z,10.30
2022-11-26T04:12:25.386Z,11.68
2022-11-26T04:14:53.576Z,11.50
2022-11-26T04:17:21.538Z,12.27
2022-11-26T04:19:49.038Z,11.35
2022-11-26T04:22:18.931Z,11.18
2022-11-26T04:24:46.012Z,10.45
2022-11-26T04:27:13.001Z,13.10
2022-11-26T04:29:40.035Z,11.40
2022-11-26T04:32:07.151Z,10.20
2022-11-26T04:34:34.085Z,10.65
2022-11-26T04:37:01.011Z,11.32
2022-11-26T04:39:27.930Z,12.10
2022-11-26T04:41:54.955Z,9.32
2022-11-26T04:44:21.939Z,9.05
2022-11-26T04:46:48.738Z,10.70
2022-11-26T04:49:15.708Z,11.05
2022-11-26T04:51:42.552Z,10.70
2022-11-26T04:54:12.891Z,12.00
2022-11-26T04:56:40.618Z,11.68
2022-11-26T04:59:07.943Z,11.52
2022-11-26T05:01:35.333Z,13.38
2022-11-26T05:04:02.304Z,10.90
2022-11-26T05:06:29.269Z,12.90
2022-11-26T05:08:56.277Z,10.77
2022-11-26T05:11:23.161Z,15.15
2022-11-26T05:13:50.151Z,13.38
2022-11-26T05:16:17.194Z,15.23
2022-11-26T05:18:44.083Z,13.60
2022-11-26T05:21:11.105Z,12.13
2022-11-26T05:23:38.145Z,13.88
2022-11-26T05:26:05.246Z,12.82
2022-11-26T05:28:32.142Z,12.00
2022-11-26T05:31:00.865Z,15.15
2022-11-26T05:33:28.210Z,13.73
2022-11-26T05:35:55.422Z,15.25
2022-11-26T05:38:22.420Z,13.85
2022-11-26T05:40:49.611Z,15.25
2022-11-26T05:43:16.953Z,12.82
2022-11-26T05:45:43.955Z,13.52
2022-11-26T05:48:10.966Z,20.55
2022-11-26T05:50:37.931Z,12.43
2022-11-26T05:53:05.158Z,14.43
2022-11-26T05:55:32.431Z,16.50
2022-11-26T05:57:59.479Z,40.28
2022-11-26T06:00:26.654Z,13.98
2022-11-26T06:02:53.748Z,19.13
2022-11-26T06:05:20.967Z,16.02
2022-11-26T06:07:47.885Z,14.55
2022-11-26T06:10:15.021Z,16.98
2022-11-26T06:12:42.037Z,12.68
2022-11-26T06:15:18.134Z,16.33
2022-11-26T06:17:45.127Z,14.10
2022-11-26T06:20:12.799Z,12.05
2022-11-26T06:22:41.701Z,13.88
2022-11-26T06:25:10.662Z,12.13
2022-11-26T06:27:38.148Z,11.95
2022-11-26T06:30:07.170Z,13.82
2022-11-26T06:32:34.129Z,13.15
2022-11-26T06:35:01.020Z,12.98
2022-11-26T06:37:27.877Z,14.18
2022-11-26T06:39:54.764Z,20.40
2022-11-26T06:42:21.571Z,14.27
2022-11-26T06:44:48.345Z,13.68
2022-11-26T06:47:15.166Z,11.00
2022-11-26T06:49:42.333Z,10.45
2022-11-26T06:52:09.198Z,9.10
2022-11-26T06:54:36.121Z,10.27
2022-11-26T06:57:03.042Z,9.50
2022-11-26T06:59:30.028Z,15.15
2022-11-26T07:01:57.036Z,9.68
2022-11-26T07:04:24.052Z,16.90
2022-11-26T07:06:50.940Z,8.32
2022-11-26T07:09:17.888Z,7.78
2022-11-26T07:11:44.799Z,10.52
2022-11-26T07:14:11.733Z,10.48
2022-11-26T07:16:38.687Z,13.15
2022-11-26T07:19:05.529Z,21.15
2022-11-26T07:21:32.413Z,12.68
2022-11-26T07:23:59.292Z,13.45
2022-11-26T07:26:26.250Z,10.95
2022-11-26T07:28:53.695Z,12.98
2022-11-26T07:31:22.891Z,12.45
2022-11-26T07:33:50.501Z,13.20
2022-11-26T07:36:26.614Z,9.00
2022-11-26T07:38:55.557Z,12.23
2022-11-26T07:41:23.169Z,9.43
2022-11-26T07:43:50.309Z,9.98
2022-11-26T07:46:20.275Z,10.20
2022-11-26T07:48:47.711Z,12.32
2022-11-26T07:51:24.147Z,14.65
2022-11-26T07:53:52.030Z,11.20
2022-11-26T07:56:19.677Z,11.05
2022-11-26T07:58:47.242Z,19.48
2022-11-26T08:01:17.082Z,15.82
2022-11-26T08:03:46.317Z,14.68
2022-11-26T08:06:16.914Z,14.05
2022-11-26T08:08:44.155Z,15.88
2022-11-26T08:11:17.447Z,14.73
2022-11-26T08:13:45.090Z,14.18
2022-11-26T08:16:13.380Z,10.10
2022-11-26T08:18:40.913Z,10.02
2022-11-26T08:21:08.172Z,17.00
2022-11-26T08:23:35.759Z,11.23
2022-11-26T08:26:23.734Z,14.20
2022-11-26T08:28:53.253Z,13.30
2022-11-26T08:31:20.443Z,11.85
2022-11-26T08:33:47.312Z,10.18
2022-11-26T08:36:14.258Z,11.13
2022-11-26T08:38:41.605Z,10.05
2022-11-26T08:41:11.683Z,11.63
2022-11-26T08:44:05.212Z,11.68
2022-11-26T08:46:26.361Z,15.63
2022-11-26T08:48:56.640Z,10.90
2022-11-26T08:51:24.916Z,16.02
2022-11-26T08:53:51.798Z,12.10
2022-11-26T08:56:18.825Z,11.70
2022-11-26T08:58:46.638Z,14.38
2022-11-26T09:01:19.648Z,10.00
2022-11-26T09:03:51.536Z,10.52
2022-11-26T09:06:19.651Z,8.60
2022-11-26T09:09:07.255Z,14.35
2022-11-26T09:11:37.341Z,12.48
2022-11-26T09:14:04.481Z,11.00
2022-11-26T09:16:32.148Z,10.85
2022-11-26T09:19:03.841Z,11.18
2022-11-26T09:21:31.191Z,11.77
2022-11-26T09:23:58.064Z,15.15
2022-11-26T09:26:25.441Z,13.98
2022-11-26T09:28:52.811Z,22.25
2022-11-26T09:31:20.542Z,11.00
2022-11-26T09:33:47.607Z,13.18
2022-11-26T09:36:16.602Z,9.98
2022-11-26T09:38:43.806Z,12.77
2022-11-26T09:41:29.548Z,11.48
2022-11-26T09:44:22.519Z,7.53
2022-11-26T09:47:28.553Z,9.30
2022-11-26T09:50:07.546Z,13.02
2022-11-26T09:52:40.145Z,11.95
2022-11-26T09:55:34.499Z,9.60
2022-11-26T09:58:27.019Z,12.63
2022-11-26T10:00:56.968Z,12.57
2022-11-26T10:03:31.680Z,14.45
2022-11-26T10:06:19.938Z,17.33
2022-11-26T10:09:11.198Z,27.58
2022-11-26T10:11:52.579Z,13.00
2022-11-26T10:14:25.568Z,14.30
2022-11-26T10:16:58.391Z,8.15
2022-11-26T10:19:31.439Z,9.07
2022-11-26T10:22:03.593Z,11.03
2022-11-26T10:24:42.239Z,10.32
2022-11-26T10:27:24.903Z,13.20
2022-11-26T10:30:09.702Z,11.50
2022-11-26T10:32:41.709Z,7.40
2022-11-26T10:35:15.720Z,8.93
2022-11-26T10:37:42.848Z,8.40
2022-11-26T10:40:25.795Z,9.00
2022-11-26T10:43:10.417Z,7.78
2022-11-26T10:45:40.333Z,7.30
2022-11-26T10:48:19.206Z,9.13
2022-11-26T10:51:06.615Z,12.63
2022-11-26T10:53:55.960Z,10.65
2022-11-26T10:56:48.120Z,10.65
2022-11-26T10:59:25.428Z,10.65
2022-11-26T11:01:56.248Z,6.78
2022-11-26T11:04:24.582Z,8.40
2022-11-26T11:06:51.466Z,6.95
2022-11-26T11:09:38.052Z,6.72
2022-11-26T11:12:11.072Z,7.20
2022-11-26T11:14:43.081Z,7.80
2022-11-26T11:17:31.932Z,7.97
2022-11-26T11:20:22.237Z,9.02
2022-11-26T11:22:57.845Z,9.77
2022-11-26T11:25:28.501Z,8.02
2022-11-26T11:28:02.143Z,7.50
2022-11-26T11:30:32.861Z,6.78
2022-11-26T11:33:12.040Z,6.88
2022-11-26T11:35:39.007Z,8.63
2022-11-26T11:38:21.981Z,6.47
2022-11-26T11:40:49.441Z,11.82
2022-11-26T11:43:19.851Z,7.70
2022-11-26T11:46:11.129Z,7.55
2022-11-26T11:48:37.913Z,8.60
2022-11-26T11:51:10.894Z,9.23
2022-11-26T11:54:00.713Z,6.95
2022-11-26T11:57:05.765Z,8.73
2022-11-26T12:00:14.690Z,6.88
2022-11-26T12:03:09.387Z,8.23
2022-11-26T12:06:21.542Z,8.82
2022-11-26T12:09:20.289Z,9.35
2022-11-26T12:12:19.396Z,8.38
2022-11-26T12:14:56.310Z,9.93
2022-11-26T12:17:28.998Z,8.20
2022-11-26T12:20:24.007Z,8.85
2022-11-26T12:22:59.246Z,9.10
2022-11-26T12:25:37.528Z,9.82
2022-11-26T12:28:25.136Z,7.38
2022-11-26T12:31:04.264Z,10.20
2022-11-26T12:33:55.363Z,9.02
2022-11-26T12:36:43.496Z,10.55
2022-11-26T12:39:23.723Z,8.48
2022-11-26T12:41:58.980Z,10.40
2022-11-26T12:44:39.759Z,8.05
2022-11-26T12:47:31.617Z,7.45
2022-11-26T12:50:12.043Z,7.32
2022-11-26T12:52:47.634Z,7.88
2022-11-26T12:55:22.280Z,7.70
2022-11-26T12:57:55.228Z,12.48
2022-11-26T13:00:37.085Z,7.50
2022-11-26T13:03:10.645Z,14.27
2022-11-26T13:05:52.821Z,7.18
2022-11-26T13:08:51.938Z,6.20
2022-11-26T13:11:25.332Z,5.03
2022-11-26T13:14:17.232Z,13.85
2022-11-26T13:16:44.149Z,12.63
2022-11-26T13:19:18.905Z,10.52
2022-11-26T13:22:07.802Z,8.80
2022-11-26T13:24:59.720Z,7.40
2022-11-26T13:27:52.279Z,6.30
2022-11-26T13:30:21.696Z,9.23
2022-11-26T13:33:16.234Z,9.23
2022-11-26T13:36:27.645Z,9.70
2022-11-26T13:39:13.716Z,8.88
2022-11-26T13:41:58.480Z,7.68
2022-11-26T13:47:39.310Z,9.35
2022-11-26T13:50:08.409Z,8.82
2022-11-26T13:53:00.041Z,11.45
2022-11-26T13:55:53.788Z,11.52
2022-11-26T13:58:36.936Z,12.23
2022-11-26T14:01:29.976Z,8.55
2022-11-26T14:03:57.965Z,10.27
2022-11-26T14:06:24.961Z,7.43
2022-11-26T14:08:53.414Z,8.43
2022-11-26T14:11:41.977Z,10.02
2022-11-26T14:14:23.944Z,11.02
2022-11-26T14:17:15.926Z,9.05
2022-11-26T14:19:42.858Z,9.57
2022-11-26T14:22:21.967Z,9.35
2022-11-26T14:24:51.565Z,8.13
2022-11-26T14:27:23.116Z,7.57
2022-11-26T14:30:07.894Z,6.82
2022-11-26T14:35:33.905Z,7.28
2022-11-26T14:38:04.533Z,6.07
2022-11-26T14:40:35.706Z,7.13
2022-11-26T14:43:16.937Z,8.93
2022-11-26T14:45:58.817Z,11.07
2022-11-26T14:48:28.324Z,14.93
2022-11-26T14:50:58.642Z,7.72
2022-11-26T14:53:32.405Z,9.85
2022-11-26T14:55:59.862Z,12.55
2022-11-26T14:58:37.837Z,9.30
2022-11-26T15:01:22.168Z,9.50
2022-11-26T15:04:06.455Z,16.08
2022-11-26T15:06:43.040Z,14.75
2022-11-26T15:09:16.000Z,17.02
2022-11-26T15:27:54.949Z,15.68
2022-11-26T15:30:24.035Z,19.42
2022-11-26T15:32:58.277Z,14.15
2022-11-26T15:35:25.216Z,14.90
2022-11-26T15:37:52.115Z,16.48
2022-11-26T15:40:26.475Z,14.02
2022-11-26T15:42:58.865Z,20.38
2022-11-26T15:45:36.126Z,22.55
2022-11-26T15:48:04.121Z,26.92
2022-11-26T15:50:35.156Z,28.88
2022-11-26T15:53:07.642Z,26.98
2022-11-26T15:55:37.031Z,31.13
2022-11-26T15:58:08.962Z,33.35
2022-11-26T16:00:41.054Z,39.28
2022-11-26T16:03:42.685Z,36.65
2022-11-26T16:06:29.075Z,36.50
2022-11-26T16:09:14.871Z,43.70
2022-11-26T16:11:57.535Z,38.17
2022-11-26T16:14:31.257Z,35.85
2022-11-26T16:17:24.842Z,39.55
2022-11-26T16:19:56.438Z,33.67
2022-11-26T16:22:28.636Z,31.20
2022-11-26T16:25:18.873Z,30.00
2022-11-26T16:28:21.592Z,27.73
2022-11-26T16:30:48.649Z,23.27
2022-11-26T16:33:15.478Z,19.63
2022-11-26T16:35:46.708Z,13.95
2022-11-26T16:38:25.172Z,14.57
2022-11-26T16:40:52.782Z,14.45
2022-11-26T16:43:20.254Z,14.52
2022-11-26T16:45:48.788Z,14.90
2022-11-26T16:48:27.710Z,17.15
2022-11-26T16:50:56.010Z,14.93
2022-11-26T16:53:23.616Z,17.88
2022-11-26T16:55:52.238Z,13.13
2022-11-26T16:58:28.671Z,13.70
2022-11-26T17:00:56.876Z,12.55
2022-11-26T17:03:24.695Z,15.30
2022-11-26T17:05:54.584Z,15.68
2022-11-26T17:08:21.395Z,15.88
2022-11-26T17:10:48.966Z,16.77
2022-11-26T17:13:15.942Z,14.20
2022-11-26T17:15:43.986Z,12.35
2022-11-26T17:18:20.853Z,13.63
2022-11-26T17:20:48.402Z,16.90
2022-11-26T17:23:15.635Z,18.63
2022-11-26T17:25:50.649Z,13.80
2022-11-26T17:28:17.598Z,14.32
2022-11-26T17:30:45.103Z,15.45
2022-11-26T17:33:12.292Z,16.23
2022-11-26T17:35:39.296Z,13.70
2022-11-26T17:38:16.948Z,13.52
2022-11-26T17:40:44.933Z,13.93
2022-11-26T17:43:12.229Z,17.42
2022-11-26T17:45:40.007Z,14.05
2022-11-26T17:48:07.414Z,18.30
2022-11-26T17:50:36.306Z,14.55
2022-11-26T17:53:03.855Z,15.68
2022-11-26T17:55:31.467Z,16.25
2022-11-26T17:57:58.540Z,15.60
2022-11-26T18:00:28.581Z,21.42
2022-11-26T18:02:56.130Z,18.75
2022-11-26T18:05:23.538Z,15.30
2022-11-26T18:07:50.412Z,19.05
2022-11-26T18:10:19.849Z,20.42
2022-11-26T18:12:47.347Z,20.55
2022-11-26T18:15:22.999Z,29.88
2022-11-26T18:17:53.030Z,20.88
2022-11-26T18:20:23.024Z,18.58
2022-11-26T18:22:51.727Z,23.23
2022-11-26T18:25:18.814Z,18.75
2022-11-26T18:27:45.815Z,15.35
2022-11-26T18:30:13.439Z,16.42
2022-11-26T18:32:40.644Z,19.10
2022-11-26T18:35:08.103Z,18.40
2022-11-26T18:37:35.968Z,19.90
2022-11-26T18:40:03.246Z,21.52
2022-11-26T18:42:37.212Z,26.40
2022-11-26T18:45:07.193Z,26.85
2022-11-26T18:47:34.165Z,34.65
2022-11-26T18:50:01.041Z,36.28
2022-11-26T18:52:27.939Z,31.63
2022-11-26T18:54:55.040Z,29.25
2022-11-26T18:57:21.886Z,34.67
2022-11-26T18:59:50.598Z,27.02
2022-11-26T19:02:17.760Z,28.58
2022-11-26T19:04:44.785Z,25.80
2022-11-26T19:07:12.303Z,27.02
2022-11-26T19:09:39.496Z,22.13
2022-11-26T19:12:06.846Z,19.80
2022-11-26T19:14:33.676Z,20.00
2022-11-26T19:17:01.255Z,16.65
2022-11-26T19:19:28.320Z,23.08
2022-11-26T19:22:00.922Z,16.55
2022-11-26T19:24:29.040Z,17.63
2022-11-26T19:26:56.178Z,17.52
2022-11-26T19:29:23.094Z,17.50
2022-11-26T19:31:49.916Z,20.15
2022-11-26T19:34:16.942Z,17.83
2022-11-26T19:36:48.519Z,20.02
2022-11-26T19:39:16.393Z,18.23
2022-11-26T19:41:43.438Z,17.65
2022-11-26T19:44:10.558Z,15.75
2022-11-26T19:46:41.108Z,14.73
2022-11-26T19:49:11.952Z,13.55
2022-11-26T19:51:39.340Z,15.20
2022-11-26T19:54:06.394Z,12.23
2022-11-26T19:56:34.157Z,13.77
2022-11-26T19:59:02.340Z,12.65
2022-11-26T20:01:32.363Z,16.35
2022-11-26T20:04:01.059Z,14.30
2022-11-26T20:06:29.432Z,13.48
2022-11-26T20:08:58.415Z,14.23
2022-11-26T20:11:26.212Z,11.23
2022-11-26T20:13:53.428Z,15.23
2022-11-26T20:16:23.405Z,18.67
2022-11-26T20:18:50.951Z,14.38
2022-11-26T20:21:21.738Z,15.38
2022-11-26T20:23:49.932Z,17.98
2022-11-26T20:26:21.813Z,15.98
2022-11-26T20:28:49.771Z,15.20
2022-11-26T20:31:23.036Z,22.98
2022-11-26T20:33:51.408Z,14.80
2022-11-26T20:36:21.093Z,12.05
2022-11-26T20:38:52.524Z,14.55
2022-11-26T20:41:19.939Z,17.08
2022-11-26T20:43:46.837Z,15.40
2022-11-26T20:46:14.609Z,15.32
2022-11-26T20:48:43.029Z,15.35
2022-11-26T20:51:13.048Z,14.90
2022-11-26T20:53:41.609Z,11.98
2022-11-26T20:56:09.103Z,18.60
2022-11-26T20:58:36.325Z,14.13
2022-11-26T21:01:03.743Z,13.75
2022-11-26T21:03:31.679Z,14.82
2022-11-26T21:06:02.841Z,17.17
2022-11-26T21:08:29.718Z,16.88
2022-11-26T21:10:56.719Z,16.83
2022-11-26T21:13:23.721Z,16.25
2022-11-26T21:15:50.592Z,14.15
2022-11-26T21:18:17.470Z,13.38
2022-11-26T21:20:44.664Z,15.07
2022-11-26T21:23:13.188Z,15.30
2022-11-26T21:25:42.126Z,15.90
2022-11-26T21:28:10.634Z,16.05
2022-11-26T21:30:38.855Z,13.75
2022-11-26T21:33:09.344Z,17.10
2022-11-26T21:35:37.383Z,17.80
2022-11-26T21:38:05.967Z,14.40
2022-11-26T21:40:33.880Z,15.13
2022-11-26T21:43:00.838Z,15.40
2022-11-26T21:45:27.916Z,17.08
2022-11-26T21:47:55.048Z,16.63
2022-11-26T21:50:21.975Z,16.30
2022-11-26T21:52:48.783Z,16.65
2022-11-26T21:55:15.809Z,16.33
2022-11-26T21:57:42.689Z,16.77
2022-11-26T22:00:10.081Z,21.10
2022-11-26T22:02:37.170Z,16.48
2022-11-26T22:05:04.332Z,15.98
2022-11-26T22:07:31.770Z,15.27
2022-11-26T22:09:58.792Z,17.45
2022-11-26T22:12:25.758Z,16.50
2022-11-26T22:14:52.594Z,12.88
2022-11-26T22:17:19.588Z,15.35
2022-11-26T22:19:46.852Z,37.70
2022-11-26T22:22:13.760Z,17.45
2022-11-26T22:24:40.719Z,13.80
2022-11-26T22:27:07.581Z,13.80
2022-11-26T22:29:34.445Z,12.23
2022-11-26T22:32:01.234Z,13.32
2022-11-26T22:34:29.216Z,18.35
2022-11-26T22:36:56.054Z,18.10
2022-11-26T22:39:23.021Z,16.23
2022-11-26T22:41:49.872Z,16.75
2022-11-26T22:44:17.162Z,17.23
2022-11-26T22:46:44.647Z,16.85
2022-11-26T22:49:16.128Z,16.25
2022-11-26T22:51:43.344Z,16.77
2022-11-26T22:54:12.662Z,17.55
2022-11-26T22:56:39.547Z,17.85
2022-11-26T22:59:08.392Z,20.05
2022-11-26T23:01:36.974Z,17.42
2022-11-26T23:04:06.702Z,16.60
2022-11-26T23:06:35.418Z,15.60
2022-11-26T23:09:04.109Z,16.40
2022-11-26T23:11:33.533Z,16.05
2022-11-26T23:14:02.146Z,17.33
2022-11-26T23:16:29.344Z,16.10
2022-11-26T23:18:57.278Z,18.95
2022-11-26T23:21:26.962Z,19.25
2022-11-26T23:23:54.407Z,18.83
2022-11-26T23:26:27.158Z,19.50
2022-11-26T23:28:56.042Z,50.83
2022-11-26T23:31:28.756Z,18.23
2022-11-26T23:33:55.846Z,14.90
2022-11-26T23:36:23.851Z,16.35
2022-11-26T23:38:50.789Z,18.77
2022-11-26T23:41:17.725Z,17.00
2022-11-26T23:43:45.102Z,15.65
2022-11-26T23:46:22.492Z,15.40
2022-11-26T23:48:50.113Z,16.67
2022-11-26T23:51:21.040Z,17.48
2022-11-26T23:53:49.489Z,16.58
2022-11-26T23:56:20.434Z,15.10
2022-11-26T23:58:54.649Z,17.92
